sensor_id;sensor_type;location;lat;lon;timestamp;pressure;altitude;pressure_sealevel;temperature;humidity
75945;BME280;64628;50.104;14.614;2023-04-19T00:02:17;99215.28;;;12.14;49.21
75945;BME280;64628;50.104;14.614;2023-04-19T00:04:42;99213.70;;;12.36;49.19
75945;BME280;64628;50.104;14.614;2023-04-19T00:07:08;99212.56;;;12.61;49.30
75945;BME280;64628;50.104;14.614;2023-04-19T00:09:33;99212.85;;;12.16;49.24
75945;BME280;64628;50.104;14.614;2023-04-19T00:11:59;99208.65;;;12.14;49.22
75945;BME280;64628;50.104;14.614;2023-04-19T00:14:25;99209.28;;;12.36;49.40
75945;BME280;64628;50.104;14.614;2023-04-19T00:16:50;99206.51;;;12.11;49.43
75945;BME280;64628;50.104;14.614;2023-04-19T00:19:15;99199.70;;;12.07;49.48
75945;BME280;64628;50.104;14.614;2023-04-19T00:21:41;99197.81;;;12.08;49.45
75945;BME280;64628;50.104;14.614;2023-04-19T00:24:07;99192.92;;;12.31;49.39
75945;BME280;64628;50.104;14.614;2023-04-19T00:26:32;99186.21;;;12.29;49.40
75945;BME280;64628;50.104;14.614;2023-04-19T00:28:58;99184.60;;;12.55;49.39
75945;BME280;64628;50.104;14.614;2023-04-19T00:31:23;99181.73;;;12.35;49.36
75945;BME280;64628;50.104;14.614;2023-04-19T00:33:49;99179.29;;;12.40;49.29
75945;BME280;64628;50.104;14.614;2023-04-19T00:36:14;99175.02;;;12.19;49.24
75945;BME280;64628;50.104;14.614;2023-04-19T00:38:39;99171.83;;;12.13;49.39
75945;BME280;64628;50.104;14.614;2023-04-19T00:41:05;99171.48;;;12.16;49.29
75945;BME280;64628;50.104;14.614;2023-04-19T00:43:31;99169.27;;;12.18;49.24
75945;BME280;64628;50.104;14.614;2023-04-19T00:45:56;99165.26;;;12.36;49.29
75945;BME280;64628;50.104;14.614;2023-04-19T00:48:21;99162.26;;;12.58;49.30
75945;BME280;64628;50.104;14.614;2023-04-19T00:50:46;99155.75;;;12.15;49.25
75945;BME280;64628;50.104;14.614;2023-04-19T00:53:12;99155.04;;;12.10;49.29
75945;BME280;64628;50.104;14.614;2023-04-19T00:55:38;99152.13;;;12.31;49.38
75945;BME280;64628;50.104;14.614;2023-04-19T00:58:04;99149.98;;;12.59;49.29
75945;BME280;64628;50.104;14.614;2023-04-19T01:00:29;99146.47;;;12.33;49.22
75945;BME280;64628;50.104;14.614;2023-04-19T01:02:54;99145.27;;;12.34;49.20
75945;BME280;64628;50.104;14.614;2023-04-19T01:05:20;99142.59;;;12.14;49.18
75945;BME280;64628;50.104;14.614;2023-04-19T01:07:45;99138.97;;;12.18;49.14
75945;BME280;64628;50.104;14.614;2023-04-19T01:10:11;99136.31;;;12.16;49.09
75945;BME280;64628;50.104;14.614;2023-04-19T01:12:36;99133.90;;;12.15;49.09
75945;BME280;64628;50.104;14.614;2023-04-19T01:15:01;99133.77;;;12.47;48.93
75945;BME280;64628;50.104;14.614;2023-04-19T01:17:27;99132.37;;;12.22;49.04
75945;BME280;64628;50.104;14.614;2023-04-19T01:19:58;99130.20;;;12.47;49.00
75945;BME280;64628;50.104;14.614;2023-04-19T01:22:20;99127.48;;;12.72;48.91
75945;BME280;64628;50.104;14.614;2023-04-19T01:24:44;99124.00;;;12.22;49.03
75945;BME280;64628;50.104;14.614;2023-04-19T01:27:09;99122.62;;;12.68;49.12
75945;BME280;64628;50.104;14.614;2023-04-19T01:29:34;99120.00;;;12.24;49.00
75945;BME280;64628;50.104;14.614;2023-04-19T01:32:00;99117.78;;;12.23;49.09
75945;BME280;64628;50.104;14.614;2023-04-19T01:34:25;99112.70;;;12.11;49.38
75945;BME280;64628;50.104;14.614;2023-04-19T01:36:51;99112.14;;;12.31;49.54
75945;BME280;64628;50.104;14.614;2023-04-19T01:39:16;99108.86;;;12.04;49.71
75945;BME280;64628;50.104;14.614;2023-04-19T01:41:41;99107.47;;;12.21;49.85
75945;BME280;64628;50.104;14.614;2023-04-19T01:44:06;99105.13;;;12.44;49.85
75945;BME280;64628;50.104;14.614;2023-04-19T01:46:31;99104.44;;;12.20;49.86
75945;BME280;64628;50.104;14.614;2023-04-19T01:48:57;99102.69;;;11.96;50.03
75945;BME280;64628;50.104;14.614;2023-04-19T01:51:23;99098.93;;;11.98;50.57
75945;BME280;64628;50.104;14.614;2023-04-19T01:53:48;99098.78;;;11.60;50.96
75945;BME280;64628;50.104;14.614;2023-04-19T01:56:14;99097.75;;;11.65;51.50
75945;BME280;64628;50.104;14.614;2023-04-19T01:58:39;99096.33;;;11.83;51.79
75945;BME280;64628;50.104;14.614;2023-04-19T02:01:04;99096.04;;;11.77;51.86
75945;BME280;64628;50.104;14.614;2023-04-19T02:03:29;99094.25;;;11.94;52.17
75945;BME280;64628;50.104;14.614;2023-04-19T02:05:55;99092.08;;;11.66;52.40
75945;BME280;64628;50.104;14.614;2023-04-19T02:08:20;99091.80;;;11.69;52.27
75945;BME280;64628;50.104;14.614;2023-04-19T02:10:45;99091.39;;;11.58;52.52
75945;BME280;64628;50.104;14.614;2023-04-19T02:13:11;99092.00;;;11.59;52.60
75945;BME280;64628;50.104;14.614;2023-04-19T02:15:36;99089.33;;;11.31;52.77
75945;BME280;64628;50.104;14.614;2023-04-19T02:18:02;99089.42;;;11.46;53.06
75945;BME280;64628;50.104;14.614;2023-04-19T02:20:28;99087.00;;;11.47;53.02
75945;BME280;64628;50.104;14.614;2023-04-19T02:22:53;99086.24;;;11.52;52.96
75945;BME280;64628;50.104;14.614;2023-04-19T02:25:19;99083.70;;;11.49;52.93
75945;BME280;64628;50.104;14.614;2023-04-19T02:27:44;99080.86;;;11.63;53.17
75945;BME280;64628;50.104;14.614;2023-04-19T02:30:11;99077.76;;;11.42;53.16
75945;BME280;64628;50.104;14.614;2023-04-19T02:32:36;99075.90;;;11.57;53.39
75945;BME280;64628;50.104;14.614;2023-04-19T02:35:01;99073.93;;;11.37;53.23
75945;BME280;64628;50.104;14.614;2023-04-19T02:37:27;99072.07;;;11.54;53.41
75945;BME280;64628;50.104;14.614;2023-04-19T02:39:53;99069.86;;;11.26;53.50
75945;BME280;64628;50.104;14.614;2023-04-19T02:42:18;99069.02;;;11.03;53.49
75945;BME280;64628;50.104;14.614;2023-04-19T02:44:44;99065.29;;;11.27;53.44
75945;BME280;64628;50.104;14.614;2023-04-19T02:47:10;99061.64;;;11.43;53.58
75945;BME280;64628;50.104;14.614;2023-04-19T02:49:35;99061.24;;;11.18;53.63
75945;BME280;64628;50.104;14.614;2023-04-19T02:52:01;99058.74;;;11.20;53.59
75945;BME280;64628;50.104;14.614;2023-04-19T02:54:27;99058.63;;;11.20;53.53
75945;BME280;64628;50.104;14.614;2023-04-19T02:56:52;99057.22;;;11.38;53.64
75945;BME280;64628;50.104;14.614;2023-04-19T02:59:18;99053.56;;;11.38;53.62
75945;BME280;64628;50.104;14.614;2023-04-19T03:01:43;99046.59;;;11.17;53.49
75945;BME280;64628;50.104;14.614;2023-04-19T03:04:09;99042.88;;;11.08;53.58
75945;BME280;64628;50.104;14.614;2023-04-19T03:06:34;99041.78;;;11.38;53.51
75945;BME280;64628;50.104;14.614;2023-04-19T03:09:00;99042.77;;;11.17;53.35
75945;BME280;64628;50.104;14.614;2023-04-19T03:11:25;99038.92;;;11.16;53.40
75945;BME280;64628;50.104;14.614;2023-04-19T03:13:50;99033.35;;;11.39;53.34
75945;BME280;64628;50.104;14.614;2023-04-19T03:16:17;99032.85;;;11.39;53.31
75945;BME280;64628;50.104;14.614;2023-04-19T03:18:41;99031.75;;;11.39;53.36
75945;BME280;64628;50.104;14.614;2023-04-19T03:21:07;99030.32;;;11.41;53.20
75945;BME280;64628;50.104;14.614;2023-04-19T03:23:32;99020.98;;;11.13;53.29
75945;BME280;64628;50.104;14.614;2023-04-19T03:25:58;99022.89;;;11.36;53.16
75945;BME280;64628;50.104;14.614;2023-04-19T03:28:23;99018.42;;;11.32;53.30
75945;BME280;64628;50.104;14.614;2023-04-19T03:30:48;99019.21;;;11.11;53.27
75945;BME280;64628;50.104;14.614;2023-04-19T03:33:13;99018.47;;;11.33;53.30
75945;BME280;64628;50.104;14.614;2023-04-19T03:35:39;99015.66;;;11.15;53.05
75945;BME280;64628;50.104;14.614;2023-04-19T03:38:04;99012.22;;;11.41;52.93
75945;BME280;64628;50.104;14.614;2023-04-19T03:40:31;99006.98;;;11.05;53.14
75945;BME280;64628;50.104;14.614;2023-04-19T03:42:55;99001.68;;;11.53;52.92
75945;BME280;64628;50.104;14.614;2023-04-19T03:45:20;99002.26;;;11.05;52.79
75945;BME280;64628;50.104;14.614;2023-04-19T03:47:45;98998.65;;;11.46;52.65
75945;BME280;64628;50.104;14.614;2023-04-19T03:50:11;98997.74;;;11.21;52.70
75945;BME280;64628;50.104;14.614;2023-04-19T03:52:36;98993.47;;;10.97;52.82
75945;BME280;64628;50.104;14.614;2023-04-19T03:55:02;98995.36;;;11.38;53.04
75945;BME280;64628;50.104;14.614;2023-04-19T03:57:28;98992.50;;;11.24;52.95
75945;BME280;64628;50.104;14.614;2023-04-19T03:59:53;98989.30;;;11.22;52.93
75945;BME280;64628;50.104;14.614;2023-04-19T04:02:18;98982.75;;;10.98;52.95
75945;BME280;64628;50.104;14.614;2023-04-19T04:04:44;98980.27;;;10.98;53.01
75945;BME280;64628;50.104;14.614;2023-04-19T04:07:09;98979.54;;;11.33;52.56
75945;BME280;64628;50.104;14.614;2023-04-19T04:09:36;98985.77;;;10.93;52.56
75945;BME280;64628;50.104;14.614;2023-04-19T04:12:00;98989.17;;;10.93;52.34
75945;BME280;64628;50.104;14.614;2023-04-19T04:14:26;98984.99;;;11.15;52.27
75945;BME280;64628;50.104;14.614;2023-04-19T04:16:51;98980.76;;;11.31;52.48
75945;BME280;64628;50.104;14.614;2023-04-19T04:19:17;98980.49;;;10.88;52.28
75945;BME280;64628;50.104;14.614;2023-04-19T04:21:42;98982.60;;;10.87;52.23
75945;BME280;64628;50.104;14.614;2023-04-19T04:24:08;98982.19;;;11.31;52.31
75945;BME280;64628;50.104;14.614;2023-04-19T04:26:33;98983.54;;;10.71;52.62
75945;BME280;64628;50.104;14.614;2023-04-19T04:28:58;98982.79;;;10.87;52.12
75945;BME280;64628;50.104;14.614;2023-04-19T04:31:23;98981.30;;;11.25;52.34
75945;BME280;64628;50.104;14.614;2023-04-19T04:33:48;98978.70;;;11.10;52.07
75945;BME280;64628;50.104;14.614;2023-04-19T04:36:13;98985.77;;;11.31;52.09
75945;BME280;64628;50.104;14.614;2023-04-19T04:38:39;98979.65;;;10.97;52.11
75945;BME280;64628;50.104;14.614;2023-04-19T04:41:05;98983.54;;;10.96;52.21
75945;BME280;64628;50.104;14.614;2023-04-19T04:43:30;98978.80;;;11.23;52.10
75945;BME280;64628;50.104;14.614;2023-04-19T04:45:56;98974.04;;;11.27;51.99
75945;BME280;64628;50.104;14.614;2023-04-19T04:48:21;98975.40;;;11.06;51.60
75945;BME280;64628;50.104;14.614;2023-04-19T04:50:46;98979.96;;;11.00;51.56
75945;BME280;64628;50.104;14.614;2023-04-19T04:53:12;98978.24;;;10.92;51.65
75945;BME280;64628;50.104;14.614;2023-04-19T04:55:37;98972.32;;;11.03;51.37
75945;BME280;64628;50.104;14.614;2023-04-19T04:58:02;98975.77;;;11.03;51.11
75945;BME280;64628;50.104;14.614;2023-04-19T05:00:27;98976.55;;;11.15;51.24
75945;BME280;64628;50.104;14.614;2023-04-19T05:02:53;98975.45;;;10.94;50.91
75945;BME280;64628;50.104;14.614;2023-04-19T05:05:19;98974.01;;;10.95;50.74
75945;BME280;64628;50.104;14.614;2023-04-19T05:07:44;98972.07;;;11.23;50.53
75945;BME280;64628;50.104;14.614;2023-04-19T05:10:10;98971.93;;;11.03;50.42
75945;BME280;64628;50.104;14.614;2023-04-19T05:12:36;98968.50;;;11.25;50.69
75945;BME280;64628;50.104;14.614;2023-04-19T05:15:01;98969.99;;;11.28;50.56
75945;BME280;64628;50.104;14.614;2023-04-19T05:17:25;98970.21;;;11.32;50.59
75945;BME280;64628;50.104;14.614;2023-04-19T05:19:51;98973.78;;;11.17;50.41
75945;BME280;64628;50.104;14.614;2023-04-19T05:22:17;98974.46;;;10.93;50.17
75945;BME280;64628;50.104;14.614;2023-04-19T05:24:43;98979.02;;;11.21;50.22
75945;BME280;64628;50.104;14.614;2023-04-19T05:27:08;98975.38;;;11.47;50.07
75945;BME280;64628;50.104;14.614;2023-04-19T05:29:34;98977.67;;;10.95;49.88
75945;BME280;64628;50.104;14.614;2023-04-19T05:31:59;98972.95;;;11.13;49.60
75945;BME280;64628;50.104;14.614;2023-04-19T05:34:24;98972.09;;;11.19;49.62
75945;BME280;64628;50.104;14.614;2023-04-19T05:36:49;98973.10;;;11.01;49.65
75945;BME280;64628;50.104;14.614;2023-04-19T05:39:15;98971.52;;;11.06;49.74
75945;BME280;64628;50.104;14.614;2023-04-19T05:41:40;98970.33;;;11.17;49.50
75945;BME280;64628;50.104;14.614;2023-04-19T05:44:06;98971.77;;;11.18;49.61
75945;BME280;64628;50.104;14.614;2023-04-19T05:46:31;98967.17;;;11.58;48.91
75945;BME280;64628;50.104;14.614;2023-04-19T05:48:57;98967.87;;;11.37;48.64
75945;BME280;64628;50.104;14.614;2023-04-19T05:51:23;98965.27;;;11.05;48.96
75945;BME280;64628;50.104;14.614;2023-04-19T05:53:48;98963.87;;;11.52;48.55
75945;BME280;64628;50.104;14.614;2023-04-19T05:56:13;98970.97;;;11.16;48.66
75945;BME280;64628;50.104;14.614;2023-04-19T05:58:38;98968.14;;;10.97;48.81
75945;BME280;64628;50.104;14.614;2023-04-19T06:01:04;98972.28;;;11.19;48.73
75945;BME280;64628;50.104;14.614;2023-04-19T06:03:29;98973.07;;;10.96;48.68
75945;BME280;64628;50.104;14.614;2023-04-19T06:05:54;98972.80;;;10.79;48.05
75945;BME280;64628;50.104;14.614;2023-04-19T06:08:20;98967.71;;;11.16;48.49
75945;BME280;64628;50.104;14.614;2023-04-19T06:10:45;98965.00;;;11.19;48.04
75945;BME280;64628;50.104;14.614;2023-04-19T06:13:10;98963.92;;;10.97;48.21
75945;BME280;64628;50.104;14.614;2023-04-19T06:15:35;98957.70;;;11.12;47.93
75945;BME280;64628;50.104;14.614;2023-04-19T06:18:01;98953.96;;;11.35;47.80
75945;BME280;64628;50.104;14.614;2023-04-19T06:20:27;98959.92;;;11.28;47.54
75945;BME280;64628;50.104;14.614;2023-04-19T06:22:52;98964.17;;;11.49;47.58
75945;BME280;64628;50.104;14.614;2023-04-19T06:25:18;98959.41;;;11.41;46.74
75945;BME280;64628;50.104;14.614;2023-04-19T06:27:43;98960.12;;;11.30;46.75
75945;BME280;64628;50.104;14.614;2023-04-19T06:30:10;98961.32;;;11.57;46.65
75945;BME280;64628;50.104;14.614;2023-04-19T06:32:34;98961.53;;;11.40;46.81
75945;BME280;64628;50.104;14.614;2023-04-19T06:35:00;98966.14;;;11.47;46.78
75945;BME280;64628;50.104;14.614;2023-04-19T06:37:25;98965.66;;;11.46;47.04
75945;BME280;64628;50.104;14.614;2023-04-19T06:39:51;98964.43;;;11.56;46.42
75945;BME280;64628;50.104;14.614;2023-04-19T06:42:16;98961.86;;;11.42;47.15
75945;BME280;64628;50.104;14.614;2023-04-19T06:44:42;98958.55;;;12.03;46.74
75945;BME280;64628;50.104;14.614;2023-04-19T06:47:07;98958.59;;;11.44;46.93
75945;BME280;64628;50.104;14.614;2023-04-19T06:49:32;98959.70;;;11.32;47.50
75945;BME280;64628;50.104;14.614;2023-04-19T06:51:58;98954.86;;;11.30;47.80
75945;BME280;64628;50.104;14.614;2023-04-19T06:54:23;98955.66;;;10.99;47.93
75945;BME280;64628;50.104;14.614;2023-04-19T06:56:49;98956.20;;;11.30;47.38
75945;BME280;64628;50.104;14.614;2023-04-19T06:59:15;98958.65;;;11.28;47.63
75945;BME280;64628;50.104;14.614;2023-04-19T07:01:39;98954.26;;;11.19;47.03
75945;BME280;64628;50.104;14.614;2023-04-19T07:04:05;98954.25;;;11.60;46.61
75945;BME280;64628;50.104;14.614;2023-04-19T07:06:30;98945.28;;;11.83;46.35
75945;BME280;64628;50.104;14.614;2023-04-19T07:08:56;98950.59;;;12.17;45.71
75945;BME280;64628;50.104;14.614;2023-04-19T07:11:21;98939.23;;;12.24;44.77
75945;BME280;64628;50.104;14.614;2023-04-19T07:13:52;98940.20;;;13.04;43.68
75945;BME280;64628;50.104;14.614;2023-04-19T07:16:12;98930.09;;;13.76;41.30
75945;BME280;64628;50.104;14.614;2023-04-19T07:18:37;98925.44;;;14.28;41.01
75945;BME280;64628;50.104;14.614;2023-04-19T07:21:03;98923.08;;;16.95;37.39
75945;BME280;64628;50.104;14.614;2023-04-19T07:23:28;98913.84;;;20.43;31.34
75945;BME280;64628;50.104;14.614;2023-04-19T07:25:53;98910.43;;;23.23;27.58
75945;BME280;64628;50.104;14.614;2023-04-19T07:28:19;98902.42;;;24.77;24.57
75945;BME280;64628;50.104;14.614;2023-04-19T07:30:44;98900.11;;;23.32;25.38
75945;BME280;64628;50.104;14.614;2023-04-19T07:33:10;98896.39;;;23.01;25.48
75945;BME280;64628;50.104;14.614;2023-04-19T07:35:38;98898.94;;;22.97;25.37
75945;BME280;64628;50.104;14.614;2023-04-19T07:38:01;98899.31;;;23.29;25.04
75945;BME280;64628;50.104;14.614;2023-04-19T07:40:27;98900.16;;;24.79;23.28
75945;BME280;64628;50.104;14.614;2023-04-19T07:42:54;98900.95;;;24.48;23.65
75945;BME280;64628;50.104;14.614;2023-04-19T07:45:17;98899.52;;;25.08;23.21
75945;BME280;64628;50.104;14.614;2023-04-19T07:47:43;98901.92;;;24.53;23.92
75945;BME280;64628;50.104;14.614;2023-04-19T07:50:09;98896.19;;;22.99;24.52
75945;BME280;64628;50.104;14.614;2023-04-19T07:52:33;98904.75;;;21.74;25.79
75945;BME280;64628;50.104;14.614;2023-04-19T07:54:59;98905.78;;;20.57;27.27
75945;BME280;64628;50.104;14.614;2023-04-19T07:57:25;98907.75;;;18.84;29.02
75945;BME280;64628;50.104;14.614;2023-04-19T07:59:50;98907.43;;;18.19;29.97
75945;BME280;64628;50.104;14.614;2023-04-19T08:02:16;98907.02;;;18.55;29.67
75945;BME280;64628;50.104;14.614;2023-04-19T08:04:41;98900.28;;;20.48;27.27
75945;BME280;64628;50.104;14.614;2023-04-19T08:07:06;98895.32;;;22.45;24.87
75945;BME280;64628;50.104;14.614;2023-04-19T08:09:33;98890.23;;;25.06;21.95
75945;BME280;64628;50.104;14.614;2023-04-19T08:11:58;98884.96;;;27.06;19.35
75945;BME280;64628;50.104;14.614;2023-04-19T08:14:23;98883.78;;;26.87;18.82
75945;BME280;64628;50.104;14.614;2023-04-19T08:16:48;98883.21;;;28.01;18.42
75945;BME280;64628;50.104;14.614;2023-04-19T08:19:14;98881.33;;;27.39;17.78
75945;BME280;64628;50.104;14.614;2023-04-19T08:21:39;98887.39;;;25.89;19.78
75945;BME280;64628;50.104;14.614;2023-04-19T08:24:05;98891.12;;;23.53;21.60
75945;BME280;64628;50.104;14.614;2023-04-19T08:26:29;98889.42;;;21.79;23.13
75945;BME280;64628;50.104;14.614;2023-04-19T08:28:55;98890.62;;;20.41;24.47
75945;BME280;64628;50.104;14.614;2023-04-19T08:31:21;98880.77;;;21.63;23.68
75945;BME280;64628;50.104;14.614;2023-04-19T08:33:47;98872.64;;;23.69;22.26
75945;BME280;64628;50.104;14.614;2023-04-19T08:36:13;98876.92;;;23.59;21.40
75945;BME280;64628;50.104;14.614;2023-04-19T08:38:37;98879.47;;;25.59;20.44
75945;BME280;64628;50.104;14.614;2023-04-19T08:41:03;98867.73;;;28.46;15.96
75945;BME280;64628;50.104;14.614;2023-04-19T08:43:29;98869.43;;;29.63;13.78
75945;BME280;64628;50.104;14.614;2023-04-19T08:45:54;98866.40;;;31.61;11.90
75945;BME280;64628;50.104;14.614;2023-04-19T08:48:19;98864.38;;;32.98;11.58
75945;BME280;64628;50.104;14.614;2023-04-19T08:50:45;98864.55;;;34.01;10.12
75945;BME280;64628;50.104;14.614;2023-04-19T08:53:10;98853.18;;;34.90;9.49
75945;BME280;64628;50.104;14.614;2023-04-19T08:55:37;98852.47;;;35.70;8.92
75945;BME280;64628;50.104;14.614;2023-04-19T08:58:02;98851.31;;;36.71;8.23
75945;BME280;64628;50.104;14.614;2023-04-19T09:00:27;98847.54;;;37.56;8.15
75945;BME280;64628;50.104;14.614;2023-04-19T09:02:53;98839.27;;;38.19;7.51
75945;BME280;64628;50.104;14.614;2023-04-19T09:05:19;98839.56;;;38.60;7.45
75945;BME280;64628;50.104;14.614;2023-04-19T09:07:45;98836.58;;;39.36;6.86
75945;BME280;64628;50.104;14.614;2023-04-19T09:10:12;98834.76;;;39.30;6.37
75945;BME280;64628;50.104;14.614;2023-04-19T09:12:36;98834.15;;;38.92;6.10
75945;BME280;64628;50.104;14.614;2023-04-19T09:15:02;98827.38;;;38.61;6.30
75945;BME280;64628;50.104;14.614;2023-04-19T09:17:27;98827.92;;;38.57;6.61
75945;BME280;64628;50.104;14.614;2023-04-19T09:19:52;98823.00;;;38.62;6.36
75945;BME280;64628;50.104;14.614;2023-04-19T09:22:18;98821.82;;;38.09;6.75
75945;BME280;64628;50.104;14.614;2023-04-19T09:24:44;98816.82;;;37.34;6.87
75945;BME280;64628;50.104;14.614;2023-04-19T09:27:10;98813.52;;;36.53;6.52
75945;BME280;64628;50.104;14.614;2023-04-19T09:29:35;98812.27;;;36.72;7.20
75945;BME280;64628;50.104;14.614;2023-04-19T09:32:01;98809.90;;;37.69;6.99
75945;BME280;64628;50.104;14.614;2023-04-19T09:34:26;98807.16;;;38.16;6.37
75945;BME280;64628;50.104;14.614;2023-04-19T09:36:52;98811.13;;;38.86;6.23
75945;BME280;64628;50.104;14.614;2023-04-19T09:39:27;98806.94;;;39.00;5.94
75945;BME280;64628;50.104;14.614;2023-04-19T09:41:49;98800.72;;;37.75;6.50
75945;BME280;64628;50.104;14.614;2023-04-19T09:44:09;98803.16;;;38.33;6.37
75945;BME280;64628;50.104;14.614;2023-04-19T09:46:35;98795.44;;;37.72;6.31
75945;BME280;64628;50.104;14.614;2023-04-19T09:49:15;98790.09;;;37.79;6.30
75945;BME280;64628;50.104;14.614;2023-04-19T09:53:51;98792.25;;;38.36;6.42
75945;BME280;64628;50.104;14.614;2023-04-19T09:56:17;98791.72;;;37.92;6.37
75945;BME280;64628;50.104;14.614;2023-04-19T09:58:42;98787.06;;;36.83;6.92
75945;BME280;64628;50.104;14.614;2023-04-19T10:01:09;98784.10;;;35.21;7.35
75945;BME280;64628;50.104;14.614;2023-04-19T10:03:34;98791.46;;;33.63;8.44
75945;BME280;64628;50.104;14.614;2023-04-19T10:05:59;98789.34;;;33.69;8.75
75945;BME280;64628;50.104;14.614;2023-04-19T10:08:26;98783.56;;;34.06;8.75
75945;BME280;64628;50.104;14.614;2023-04-19T10:10:51;98784.00;;;33.56;8.91
75945;BME280;64628;50.104;14.614;2023-04-19T10:13:17;98785.78;;;31.33;9.87
75945;BME280;64628;50.104;14.614;2023-04-19T10:15:42;98791.33;;;28.97;11.51
75945;BME280;64628;50.104;14.614;2023-04-19T10:18:08;98782.05;;;28.45;11.76
75945;BME280;64628;50.104;14.614;2023-04-19T10:20:40;98784.18;;;29.40;13.16
75945;BME280;64628;50.104;14.614;2023-04-19T10:23:00;98773.71;;;30.33;11.38
75945;BME280;64628;50.104;14.614;2023-04-19T10:25:28;98777.55;;;27.32;11.64
75945;BME280;64628;50.104;14.614;2023-04-19T10:27:49;98780.28;;;26.39;13.03
75945;BME280;64628;50.104;14.614;2023-04-19T10:30:21;98773.38;;;24.84;13.99
75945;BME280;64628;50.104;14.614;2023-04-19T10:32:41;98775.06;;;24.86;15.25
75945;BME280;64628;50.104;14.614;2023-04-19T10:35:17;98780.81;;;23.98;15.32
75945;BME280;64628;50.104;14.614;2023-04-19T10:37:31;98779.50;;;23.41;15.84
75945;BME280;64628;50.104;14.614;2023-04-19T10:39:56;98783.01;;;23.11;16.49
75945;BME280;64628;50.104;14.614;2023-04-19T10:42:21;98784.15;;;22.29;17.10
75945;BME280;64628;50.104;14.614;2023-04-19T10:47:11;98793.51;;;20.10;19.52
75945;BME280;64628;50.104;14.614;2023-04-19T10:52:06;98797.36;;;19.52;20.55
75945;BME280;64628;50.104;14.614;2023-04-19T10:54:29;98798.61;;;19.52;20.50
75945;BME280;64628;50.104;14.614;2023-04-19T10:57:01;98795.78;;;20.46;20.41
75945;BME280;64628;50.104;14.614;2023-04-19T10:59:22;98795.68;;;22.11;20.21
75945;BME280;64628;50.104;14.614;2023-04-19T11:01:50;98796.65;;;22.66;18.54
75945;BME280;64628;50.104;14.614;2023-04-19T11:04:11;98803.36;;;22.98;18.27
75945;BME280;64628;50.104;14.614;2023-04-19T11:06:34;98802.34;;;23.14;18.59
75945;BME280;64628;50.104;14.614;2023-04-19T11:09:00;98807.98;;;23.56;17.50
75945;BME280;64628;50.104;14.614;2023-04-19T11:11:25;98802.80;;;22.88;17.45
75945;BME280;64628;50.104;14.614;2023-04-19T11:13:55;98813.95;;;22.60;18.50
75945;BME280;64628;50.104;14.614;2023-04-19T11:16:14;98805.49;;;22.27;18.83
75945;BME280;64628;50.104;14.614;2023-04-19T11:18:44;98809.48;;;22.55;18.35
75945;BME280;64628;50.104;14.614;2023-04-19T11:21:05;98804.94;;;22.52;18.80
75945;BME280;64628;50.104;14.614;2023-04-19T11:23:35;98806.07;;;22.46;18.86
75945;BME280;64628;50.104;14.614;2023-04-19T11:25:56;98805.34;;;22.42;19.07
75945;BME280;64628;50.104;14.614;2023-04-19T11:28:20;98803.38;;;22.69;18.65
75945;BME280;64628;50.104;14.614;2023-04-19T11:30:51;98807.69;;;22.70;18.18
75945;BME280;64628;50.104;14.614;2023-04-19T11:33:11;98803.59;;;22.44;18.05
75945;BME280;64628;50.104;14.614;2023-04-19T11:35:36;98807.25;;;22.25;18.35
75945;BME280;64628;50.104;14.614;2023-04-19T11:38:00;98805.41;;;22.83;18.12
75945;BME280;64628;50.104;14.614;2023-04-19T11:40:26;98804.03;;;22.47;18.15
75945;BME280;64628;50.104;14.614;2023-04-19T11:42:54;98804.17;;;22.20;18.62
75945;BME280;64628;50.104;14.614;2023-04-19T11:45:24;98805.44;;;22.36;18.88
75945;BME280;64628;50.104;14.614;2023-04-19T11:47:46;98804.35;;;22.13;18.77
75945;BME280;64628;50.104;14.614;2023-04-19T11:52:39;98805.54;;;21.86;18.83
75945;BME280;64628;50.104;14.614;2023-04-19T11:57:27;98814.43;;;21.79;19.25
75945;BME280;64628;50.104;14.614;2023-04-19T12:02:12;98814.13;;;21.76;18.87
75945;BME280;64628;50.104;14.614;2023-04-19T12:04:38;98819.51;;;20.43;19.78
75945;BME280;64628;50.104;14.614;2023-04-19T12:07:04;98821.32;;;20.80;21.01
75945;BME280;64628;50.104;14.614;2023-04-19T12:09:28;98830.17;;;20.40;20.17
75945;BME280;64628;50.104;14.614;2023-04-19T12:11:53;98825.11;;;20.09;20.44
75945;BME280;64628;50.104;14.614;2023-04-19T12:14:19;98827.36;;;20.40;20.43
75945;BME280;64628;50.104;14.614;2023-04-19T12:16:44;98833.51;;;20.22;21.35
75945;BME280;64628;50.104;14.614;2023-04-19T12:19:11;98830.77;;;19.69;21.53
75945;BME280;64628;50.104;14.614;2023-04-19T12:21:34;98826.09;;;19.90;22.03
75945;BME280;64628;50.104;14.614;2023-04-19T12:24:01;98820.09;;;19.58;21.27
75945;BME280;64628;50.104;14.614;2023-04-19T12:26:27;98824.78;;;19.65;21.70
75945;BME280;64628;50.104;14.614;2023-04-19T12:28:52;98816.57;;;19.27;22.05
75945;BME280;64628;50.104;14.614;2023-04-19T12:31:17;98826.60;;;19.44;21.83
75945;BME280;64628;50.104;14.614;2023-04-19T12:33:42;98830.12;;;19.21;21.57
75945;BME280;64628;50.104;14.614;2023-04-19T12:36:07;98826.09;;;19.51;21.98
75945;BME280;64628;50.104;14.614;2023-04-19T12:38:33;98819.81;;;19.17;22.01
75945;BME280;64628;50.104;14.614;2023-04-19T12:40:58;98813.10;;;19.52;22.20
75945;BME280;64628;50.104;14.614;2023-04-19T12:43:24;98812.87;;;19.57;22.43
75945;BME280;64628;50.104;14.614;2023-04-19T12:45:49;98813.80;;;19.29;23.21
75945;BME280;64628;50.104;14.614;2023-04-19T12:48:14;98813.27;;;19.71;22.94
75945;BME280;64628;50.104;14.614;2023-04-19T12:50:40;98817.79;;;20.22;21.29
75945;BME280;64628;50.104;14.614;2023-04-19T12:53:05;98815.90;;;19.36;20.96
75945;BME280;64628;50.104;14.614;2023-04-19T12:55:30;98816.99;;;19.14;20.74